Time;durP1;ratioP1;P1;durP2;ratioP2;P2;SDS_P1;SDS_P2;PMS_P1;PMS_P2;Temp;Humidity;BMP_temperature;BMP_pressure;BME280_temperature;BME280_humidity;BME280_pressure;Samples;Min_cycle;Max_cycle;Signal;HPM_P1;HPM_P2
2022/06/26 00:02:27;;;;;;;;;;;;;;;12.91;100.00;98113.25;5073861;28;19924;-82
2022/06/26 00:04:54;;;;;;;;;;;;;;;13.60;100.00;98111.59;5072507;28;19951;-82
2022/06/26 00:07:22;;;;;;;;;;;;;;;13.74;100.00;98099.72;5088832;28;20294;-82
2022/06/26 00:09:52;;;;;;;;;;;;;;;13.53;100.00;98109.06;5073948;28;19947;-82
2022/06/26 00:12:19;;;;;;;;;;;;;;;13.16;100.00;98107.44;5039591;28;20394;-82
2022/06/26 00:14:46;;;;;;;;;;;;;;;13.66;100.00;98099.25;5088979;28;19931;-82
2022/06/26 00:17:14;;;;;;;;;;;;;;;13.92;100.00;98096.91;5073963;28;19925;-82
2022/06/26 00:19:41;;;;;;;;;;;;;;;13.87;100.00;98097.56;5056176;28;19924;-82
2022/06/26 00:22:09;;;;;;;;;;;;;;;14.03;100.00;98100.81;5073721;28;19928;-82
2022/06/26 00:24:37;;;;;;;;;;;;;;;13.94;100.00;98094.41;5074275;28;19924;-82
2022/06/26 00:27:06;;;;;;;;;;;;;;;13.99;100.00;98099.41;5075810;28;19928;-82
2022/06/26 00:29:34;;;;;;;;;;;;;;;14.13;100.00;98090.34;5073990;28;20353;-82
2022/06/26 00:32:02;;;;;;;;;;;;;;;14.10;100.00;98092.06;5075556;28;20394;-82
2022/06/26 00:34:30;;;;;;;;;;;;;;;13.17;100.00;98100.59;5075558;28;19924;-82
2022/06/26 00:36:57;;;;;;;;;;;;;;;13.18;100.00;98102.13;5075721;28;19928;-82
2022/06/26 00:39:25;;;;;;;;;;;;;;;13.15;100.00;98100.25;5075703;28;20448;-82
2022/06/26 00:41:53;;;;;;;;;;;;;;;12.32;100.00;98101.16;5058532;28;20361;-82
2022/06/26 00:44:24;;;;;;;;;;;;;;;11.77;100.00;98118.78;5058550;28;19924;-82
2022/06/26 00:46:52;;;;;;;;;;;;;;;12.16;100.00;98112.53;5075455;28;20336;-82
2022/06/26 00:49:20;;;;;;;;;;;;;;;12.03;100.00;98109.03;5058927;28;19928;-82
2022/06/26 00:51:48;;;;;;;;;;;;;;;11.98;100.00;98106.81;5092282;28;19977;-82
2022/06/26 00:54:15;;;;;;;;;;;;;;;12.30;100.00;98109.22;5075518;28;19924;-82
2022/06/26 00:56:43;;;;;;;;;;;;;;;12.67;100.00;98113.78;5109030;28;20336;-82
2022/06/26 00:59:10;;;;;;;;;;;;;;;12.72;100.00;98110.38;5058582;28;19924;-82
2022/06/26 01:01:38;;;;;;;;;;;;;;;12.77;100.00;98109.78;5092997;28;19928;-82
2022/06/26 01:04:05;;;;;;;;;;;;;;;12.78;100.00;98108.50;5058386;28;19923;-82
2022/06/26 01:06:34;;;;;;;;;;;;;;;12.90;100.00;98106.88;5092027;28;19924;-82
2022/06/26 01:09:03;;;;;;;;;;;;;;;12.98;100.00;98110.16;5057813;28;20363;-82
2022/06/26 01:11:31;;;;;;;;;;;;;;;12.89;100.00;98107.34;5058009;28;20355;-82
2022/06/26 01:13:59;;;;;;;;;;;;;;;12.49;100.00;98108.09;5075153;28;19931;-82
2022/06/26 01:16:27;;;;;;;;;;;;;;;12.87;100.00;98110.59;5075156;28;20027;-82
2022/06/26 01:18:56;;;;;;;;;;;;;;;13.16;100.00;98105.41;5058347;28;19925;-82
2022/06/26 01:21:24;;;;;;;;;;;;;;;12.77;100.00;98109.78;5041665;28;20369;-82
2022/06/26 01:23:52;;;;;;;;;;;;;;;12.52;100.00;98118.38;5074826;28;19924;-81
2022/06/26 01:26:20;;;;;;;;;;;;;;;12.71;100.00;98108.81;5074800;28;19935;-81
2022/06/26 01:28:48;;;;;;;;;;;;;;;12.44;100.00;98119.88;5075539;28;19978;-81
2022/06/26 01:31:18;;;;;;;;;;;;;;;12.34;100.00;98121.06;5075038;28;19924;-81
2022/06/26 01:33:47;;;;;;;;;;;;;;;12.71;100.00;98108.03;5074946;28;19924;-81
2022/06/26 01:36:15;;;;;;;;;;;;;;;12.48;100.00;98106.50;5075088;28;20355;-81
2022/06/26 01:38:43;;;;;;;;;;;;;;;12.77;100.00;98109.78;5058312;28;20019;-81
2022/06/26 01:41:10;;;;;;;;;;;;;;;12.57;100.00;98119.81;5058009;28;20338;-81
2022/06/26 01:43:40;;;;;;;;;;;;;;;12.58;100.00;98116.53;5091275;28;20010;-81
2022/06/26 01:46:07;;;;;;;;;;;;;;;12.46;100.00;98114.59;5057695;28;19967;-81
2022/06/26 01:48:37;;;;;;;;;;;;;;;12.40;100.00;98112.84;5074733;28;19931;-81
2022/06/26 01:51:06;;;;;;;;;;;;;;;12.32;100.00;98125.56;5074929;28;19950;-81
2022/06/26 01:53:34;;;;;;;;;;;;;;;12.19;100.00;98125.63;5074668;28;19967;-81
2022/06/26 01:56:03;;;;;;;;;;;;;;;12.76;100.00;98124.25;5041354;28;19931;-81
2022/06/26 01:58:33;;;;;;;;;;;;;;;12.68;100.00;98125.75;5058333;28;19924;-81
2022/06/26 02:01:01;;;;;;;;;;;;;;;12.70;100.00;98123.28;5074542;28;20027;-81
2022/06/26 02:03:28;;;;;;;;;;;;;;;12.84;100.00;98121.94;5092647;28;19971;-81
2022/06/26 02:05:55;;;;;;;;;;;;;;;12.91;100.00;98130.06;5074602;28;19960;-81
2022/06/26 02:08:23;;;;;;;;;;;;;;;12.71;100.00;98120.03;5074663;28;19924;-81
2022/06/26 02:13:41;;;;;;;;;;;;;;;12.68;100.00;98126.53;5096120;28;19924;-81
2022/06/26 02:16:12;;;;;;;;;;;;;;;12.47;100.00;98124.56;5061196;28;19934;-81
2022/06/26 02:18:42;;;;;;;;;;;;;;;12.86;100.00;98137.03;5045002;28;19931;-81
2022/06/26 02:21:12;;;;;;;;;;;;;;;12.68;100.00;98129.34;5078360;28;20205;-81
2022/06/26 02:23:39;;;;;;;;;;;;;;;12.98;100.00;98141.00;5077879;28;19931;-81
2022/06/26 02:26:07;;;;;;;;;;;;;;;12.62;100.00;98122.78;5077966;28;19970;-81
2022/06/26 02:28:38;;;;;;;;;;;;;;;12.72;100.00;98126.41;5078404;28;20282;-81
2022/06/26 02:31:06;;;;;;;;;;;;;;;12.63;100.00;98129.19;5078353;28;19967;-81
2022/06/26 02:33:34;;;;;;;;;;;;;;;12.74;100.00;98135.13;5062002;28;20030;-81
2022/06/26 02:36:03;;;;;;;;;;;;;;;12.81;100.00;98120.06;5077801;28;19923;-81
2022/06/26 02:38:32;;;;;;;;;;;;;;;12.56;100.00;98123.81;5077668;28;19924;-81
2022/06/26 02:41:02;;;;;;;;;;;;;;;12.35;100.00;98130.25;5061480;28;19939;-81
2022/06/26 02:43:29;;;;;;;;;;;;;;;12.56;100.00;98124.63;5077946;28;19924;-81
2022/06/26 02:45:57;;;;;;;;;;;;;;;12.66;100.00;98123.41;5061074;28;19931;-81
2022/06/26 02:48:25;;;;;;;;;;;;;;;13.00;100.00;98124.50;5077828;28;20012;-81
2022/06/26 02:50:52;;;;;;;;;;;;;;;13.13;100.00;98113.97;5077444;28;19924;-81
2022/06/26 02:53:20;;;;;;;;;;;;;;;12.89;100.00;98118.53;5077514;28;19982;-81
2022/06/26 02:55:49;;;;;;;;;;;;;;;12.62;100.00;98108.78;5077185;28;20457;-81
2022/06/26 02:58:17;;;;;;;;;;;;;;;12.45;100.00;98106.63;5077643;28;20001;-81
2022/06/26 03:00:56;;;;;;;;;;;;;;;12.29;100.00;98124.47;5078931;28;19959;-81
2022/06/26 03:03:24;;;;;;;;;;;;;;;12.34;100.00;98115.44;5077556;28;19928;-81
2022/06/26 03:05:52;;;;;;;;;;;;;;;12.60;100.00;98116.84;5060311;28;19950;-81
2022/06/26 03:08:23;;;;;;;;;;;;;;;12.82;100.00;98113.19;5060355;28;19981;-81
2022/06/26 03:10:51;;;;;;;;;;;;;;;12.63;100.00;98106.75;5060400;28;19952;-81
2022/06/26 03:13:18;;;;;;;;;;;;;;;12.78;100.00;98119.72;5077046;28;19924;-81
2022/06/26 03:15:46;;;;;;;;;;;;;;;13.33;100.00;98115.13;5060672;28;19924;-81
2022/06/26 03:18:16;;;;;;;;;;;;;;;13.23;100.00;98112.75;5077487;28;20027;-81
2022/06/26 03:20:44;;;;;;;;;;;;;;;13.00;100.00;98113.28;5077271;28;19927;-81
2022/06/26 03:23:12;;;;;;;;;;;;;;;13.20;100.00;98119.28;5094762;28;20005;-81
2022/06/26 03:25:42;;;;;;;;;;;;;;;13.38;100.00;98117.31;5059614;28;19924;-81
2022/06/26 03:28:09;;;;;;;;;;;;;;;13.52;100.00;98127.16;5059934;28;19947;-81
2022/06/26 03:30:42;;;;;;;;;;;;;;;13.28;100.00;98120.56;5093919;28;19931;-81
2022/06/26 03:33:10;;;;;;;;;;;;;;;13.19;100.00;98110.09;5060003;28;19967;-81
2022/06/26 03:35:37;;;;;;;;;;;;;;;13.85;100.00;98109.25;5076847;28;19924;-81
2022/06/26 03:38:05;;;;;;;;;;;;;;;13.49;100.00;98106.44;5060306;28;19930;-81
2022/06/26 03:40:34;;;;;;;;;;;;;;;12.95;100.00;98117.47;5060070;28;19924;-81
2022/06/26 03:43:02;;;;;;;;;;;;;;;13.49;100.00;98114.06;5076891;28;19924;-81
2022/06/26 03:45:43;;;;;;;;;;;;;;;13.14;100.00;98123.94;5060011;28;19930;-81
2022/06/26 03:48:11;;;;;;;;;;;;;;;13.54;100.00;98116.25;5059733;28;19931;-81
2022/06/26 03:50:38;;;;;;;;;;;;;;;13.22;100.00;98111.19;5076505;28;19928;-81
2022/06/26 03:53:06;;;;;;;;;;;;;;;13.52;100.00;98115.94;5076087;28;19925;-81
2022/06/26 03:55:34;;;;;;;;;;;;;;;13.04;100.00;98125.16;5093476;28;20290;-81
2022/06/26 03:58:02;;;;;;;;;;;;;;;13.11;100.00;98124.88;5076189;28;19924;-81
2022/06/26 04:00:32;;;;;;;;;;;;;;;12.71;100.00;98125.63;5076307;28;19950;-81
2022/06/26 04:03:04;;;;;;;;;;;;;;;12.72;100.00;98127.19;5076440;28;19928;-81
2022/06/26 04:05:31;;;;;;;;;;;;;;;13.14;100.00;98143.56;5092788;28;20403;-81
2022/06/26 04:07:59;;;;;;;;;;;;;;;13.41;100.00;98122.00;5094189;28;20367;-81
2022/06/26 04:10:32;;;;;;;;;;;;;;;13.21;100.00;98132.09;5059996;28;19928;-81
2022/06/26 04:13:03;;;;;;;;;;;;;;;12.95;100.00;98142.69;5076039;28;20313;-81
2022/06/26 04:15:36;;;;;;;;;;;;;;;13.53;100.00;98132.31;5076251;28;19931;-81
2022/06/26 04:18:04;;;;;;;;;;;;;;;12.13;100.00;98126.69;5093188;28;19977;-82
2022/06/26 04:20:32;;;;;;;;;;;;;;;13.20;100.00;98156.53;5076023;28;20000;-82
2022/06/26 04:23:00;;;;;;;;;;;;;;;13.26;100.00;98145.47;5059244;28;19941;-82
2022/06/26 04:25:29;;;;;;;;;;;;;;;13.19;100.00;98152.16;5058951;28;19924;-82
2022/06/26 04:27:56;;;;;;;;;;;;;;;13.36;100.00;98152.69;5075850;28;20399;-81
2022/06/26 04:30:25;;;;;;;;;;;;;;;13.15;100.00;98142.31;5075772;28;19967;-81
2022/06/26 04:32:52;;;;;;;;;;;;;;;12.93;100.00;98148.00;5058742;28;19986;-81
2022/06/26 04:35:19;;;;;;;;;;;;;;;13.40;100.00;98162.53;5058301;28;20360;-82
2022/06/26 04:37:47;;;;;;;;;;;;;;;13.30;100.00;98155.31;5075851;28;19928;-82
2022/06/26 04:40:15;;;;;;;;;;;;;;;13.20;100.00;98155.75;5075597;28;20392;-82
2022/06/26 04:42:43;;;;;;;;;;;;;;;13.39;100.00;98163.75;5075572;28;19928;-81
2022/06/26 04:45:11;;;;;;;;;;;;;;;13.68;100.00;98164.13;5058397;28;20451;-82
2022/06/26 04:47:40;;;;;;;;;;;;;;;13.50;100.00;98152.88;5074960;28;19962;-82
2022/06/26 04:50:15;;;;;;;;;;;;;;;13.75;100.00;98146.97;5075385;28;19924;-82
2022/06/26 04:52:49;;;;;;;;;;;;;;;13.76;100.00;98151.38;5058920;28;20023;-81
2022/06/26 04:55:18;;;;;;;;;;;;;;;13.63;100.00;98147.91;5075519;28;19924;-81
2022/06/26 04:57:47;;;;;;;;;;;;;;;13.35;100.00;98156.72;5059032;28;20462;-81
2022/06/26 05:00:15;;;;;;;;;;;;;;;13.27;100.00;98141.44;5075532;28;20399;-82
2022/06/26 05:02:54;;;;;;;;;;;;;;;13.24;100.00;98137.53;5060481;28;19931;-82
2022/06/26 05:05:40;;;;;;;;;;;;;;;13.76;100.00;98147.75;5058545;28;19930;-82
2022/06/26 05:08:26;;;;;;;;;;;;;;;13.66;100.00;98144.16;5075216;28;20376;-82
2022/06/26 05:10:53;;;;;;;;;;;;;;;13.93;100.00;98158.22;5075225;28;19947;-82
2022/06/26 05:13:20;;;;;;;;;;;;;;;13.89;100.00;98151.19;5075108;28;20286;-81
2022/06/26 05:16:03;;;;;;;;;;;;;;;13.88;100.00;98149.63;5058337;28;19970;-82
2022/06/26 05:18:31;;;;;;;;;;;;;;;14.01;100.00;98147.47;5074362;28;19924;-81
2022/06/26 05:20:58;;;;;;;;;;;;;;;13.75;100.00;98146.97;5108929;28;19924;-81
2022/06/26 05:23:32;;;;;;;;;;;;;;;13.92;100.00;98144.66;5059670;28;19974;-81
2022/06/26 05:26:06;;;;;;;;;;;;;;;14.00;100.00;98151.50;5057871;28;20442;-81
2022/06/26 05:28:34;;;;;;;;;;;;;;;14.25;100.00;98159.66;5091556;28;19947;-82
2022/06/26 05:31:01;;;;;;;;;;;;;;;13.81;100.00;98152.78;5074958;28;20294;-82
2022/06/26 05:33:33;;;;;;;;;;;;;;;14.07;100.00;98159.66;5058109;28;19934;-81
2022/06/26 05:36:00;;;;;;;;;;;;;;;13.92;100.00;98144.66;5057731;28;19931;-82
2022/06/26 05:38:28;;;;;;;;;;;;;;;13.75;100.00;98146.22;5075142;28;19924;-82
2022/06/26 05:40:55;;;;;;;;;;;;;;;13.63;100.00;98161.16;5058102;28;19924;-82
2022/06/26 05:43:23;;;;;;;;;;;;;;;13.58;100.00;98164.59;5057952;28;19928;-81
2022/06/26 05:45:52;;;;;;;;;;;;;;;13.94;100.00;98153.38;5075339;28;19924;-81
2022/06/26 05:48:26;;;;;;;;;;;;;;;14.08;100.00;98147.94;5061637;28;19927;-81
2022/06/26 05:51:17;;;;;;;;;;;;;;;14.14;100.00;98162.94;5079043;28;20004;-82
2022/06/26 05:54:06;;;;;;;;;;;;;;;13.93;100.00;98154.66;5032332;28;19932;-82
2022/06/26 05:56:56;;;;;;;;;;;;;;;13.50;100.00;98168.91;5081829;28;19930;-82
2022/06/26 05:59:46;;;;;;;;;;;;;;;13.65;100.00;98165.06;5078523;28;19924;-82
2022/06/26 06:02:44;;;;;;;;;;;;;;;13.36;100.00;98175.91;5112346;28;20026;-81
2022/06/26 06:05:13;;;;;;;;;;;;;;;14.21;100.00;98175.84;5061569;28;20291;-82
2022/06/26 06:07:41;;;;;;;;;;;;;;;13.82;100.00;98174.75;5062164;28;19924;-82
2022/06/26 06:10:09;;;;;;;;;;;;;;;14.05;100.00;98190.22;5078600;28;20379;-81
2022/06/26 06:12:38;;;;;;;;;;;;;;;14.12;100.00;98187.88;5078052;28;19924;-82
2022/06/26 06:15:07;;;;;;;;;;;;;;;14.06;100.00;98186.94;5078324;28;19977;-82
2022/06/26 06:17:36;;;;;;;;;;;;;;;13.64;100.00;98185.97;5078224;28;19947;-81
2022/06/26 06:20:06;;;;;;;;;;;;;;;14.16;100.00;98182.88;5061756;28;19931;-82
2022/06/26 06:22:38;;;;;;;;;;;;;;;14.57;100.00;98184.28;5078468;28;19931;-81
2022/06/26 06:25:06;;;;;;;;;;;;;;;14.44;100.00;98175.25;5061586;28;19931;-82
2022/06/26 06:27:36;;;;;;;;;;;;;;;15.07;100.00;98183.50;5095461;28;20066;-82
2022/06/26 06:30:07;;;;;;;;;;;;;;;15.00;100.00;98183.88;5061145;28;19924;-82
2022/06/26 06:32:36;;;;;;;;;;;;;;;14.64;100.00;98172.72;5061323;28;19924;-83
2022/06/26 06:35:08;;;;;;;;;;;;;;;15.20;100.00;98172.06;5095522;28;20387;-83
2022/06/26 06:37:37;;;;;;;;;;;;;;;14.96;100.00;98177.63;5096217;28;20290;-82
2022/06/26 06:40:04;;;;;;;;;;;;;;;15.41;100.00;98188.72;5061053;28;20034;-82
2022/06/26 06:42:38;;;;;;;;;;;;;;;15.31;100.00;98170.28;5078143;28;20426;-82
2022/06/26 06:45:11;;;;;;;;;;;;;;;15.41;100.00;98171.84;5077568;28;19924;-82
2022/06/26 06:47:55;;;;;;;;;;;;;;;14.77;100.00;98180.97;5060823;28;20015;-82
2022/06/26 06:50:39;;;;;;;;;;;;;;;15.16;100.00;98180.66;5080450;28;19947;-82
2022/06/26 06:53:08;;;;;;;;;;;;;;;15.07;100.00;98175.06;5077833;28;20432;-82
2022/06/26 06:55:36;;;;;;;;;;;;;;;15.39;100.00;98170.75;5094432;28;20288;-82
2022/06/26 06:58:03;;;;;;;;;;;;;;;15.46;100.00;98187.28;5093758;28;19971;-83
2022/06/26 07:00:32;;;;;;;;;;;;;;;15.75;100.00;98174.13;5095296;28;20329;-83
2022/06/26 07:03:00;;;;;;;;;;;;;;;15.11;100.00;98169.28;5111514;28;19989;-88
2022/06/26 07:05:28;;;;;;;;;;;;;;;15.50;100.00;98171.00;5077612;28;19932;-82
2022/06/26 07:07:56;;;;;;;;;;;;;;;15.87;100.00;98184.38;5060872;28;19972;-83
2022/06/26 07:10:24;;;;;;;;;;;;;;;15.68;100.00;98182.94;5061017;28;19932;-83
2022/06/26 07:12:58;;;;;;;;;;;;;;;15.79;100.00;98177.56;5060143;28;19924;-83
2022/06/26 07:15:25;;;;;;;;;;;;;;;15.92;100.00;98157.56;5077392;28;19924;-86
2022/06/26 07:17:53;;;;;;;;;;;;;;;15.66;100.00;98191.06;5077352;28;19981;-81
2022/06/26 07:20:24;;;;;;;;;;;;;;;15.93;100.00;98185.25;5110792;28;19931;-80
2022/06/26 07:22:53;;;;;;;;;;;;;;;15.73;100.00;98187.94;5093766;28;19939;-80
2022/06/26 07:25:41;;;;;;;;;;;;;;;15.70;100.00;98202.19;5076698;28;19924;-80
2022/06/26 07:28:10;;;;;;;;;;;;;;;15.76;100.00;98184.16;5110433;28;20362;-80
2022/06/26 07:30:37;;;;;;;;;;;;;;;15.67;100.00;98203.13;5077053;28;19999;-80
2022/06/26 07:35:57;;;;;;;;;;;;;;;16.13;100.00;98196.72;5076872;28;19931;-81
2022/06/26 07:38:27;;;;;;;;;;;;;;;16.34;100.00;98206.13;5060361;28;19924;-81
2022/06/26 07:40:55;;;;;;;;;;;;;;;16.62;100.00;98187.69;5076602;28;19923;-81
2022/06/26 07:43:22;;;;;;;;;;;;;;;15.85;100.00;98192.53;5076172;28;19982;-81
2022/06/26 07:45:49;;;;;;;;;;;;;;;17.20;100.00;98179.22;5076629;28;20339;-81
2022/06/26 07:48:18;;;;;;;;;;;;;;;17.16;100.00;98181.44;5076702;28;19928;-81
2022/06/26 07:50:46;;;;;;;;;;;;;;;16.06;100.00;98197.09;5059606;28;20342;-81
2022/06/26 07:53:14;;;;;;;;;;;;;;;16.52;100.00;98205.97;5060247;28;19950;-81
2022/06/26 07:55:41;;;;;;;;;;;;;;;16.37;100.00;98190.25;5094736;28;19924;-81
2022/06/26 07:58:09;;;;;;;;;;;;;;;16.55;100.00;98192.94;5076086;28;19973;-81
2022/06/26 08:00:36;;;;;;;;;;;;;;;16.23;100.00;98206.66;5074381;28;19931;-80
2022/06/26 08:03:08;;;;;;;;;;;;;;;16.23;100.00;98217.16;5076252;28;19925;-81
2022/06/26 08:05:36;;;;;;;;;;;;;;;16.18;100.00;98206.53;5059635;28;19928;-81
2022/06/26 08:08:04;;;;;;;;;;;;;;;16.27;100.00;98190.34;5043060;28;19928;-80
2022/06/26 08:10:34;;;;;;;;;;;;;;;16.41;100.00;98199.28;5075048;28;20418;-81
2022/06/26 08:13:01;;;;;;;;;;;;;;;16.84;100.00;98192.97;5093927;28;19986;-80
2022/06/26 08:15:28;;;;;;;;;;;;;;;17.10;100.00;98185.47;5076139;28;19971;-81
2022/06/26 08:17:56;;;;;;;;;;;;;;;15.74;100.00;98209.19;5076184;28;20031;-81
2022/06/26 08:20:24;;;;;;;;;;;;;;;16.90;100.00;98193.84;5059622;28;20386;-80
2022/06/26 08:22:52;;;;;;;;;;;;;;;18.13;100.00;98179.03;5075677;28;19935;-81
2022/06/26 08:27:34;;;;;;;;;;;;;;;19.81;100.00;98161.84;5089266;28;19966;-81
2022/06/26 08:30:03;;;;;;;;;;;;;;;19.84;100.00;98175.00;5072512;28;19924;-81
2022/06/26 08:32:30;;;;;;;;;;;;;;;19.25;100.00;98171.22;5071965;28;19924;-81
2022/06/26 08:34:58;;;;;;;;;;;;;;;19.34;100.00;98174.63;5090331;28;19925;-81
2022/06/26 08:37:25;;;;;;;;;;;;;;;20.01;100.00;98170.16;5052525;28;20032;-82
2022/06/26 08:39:53;;;;;;;;;;;;;;;19.23;100.00;98160.38;5071795;28;19974;-82
2022/06/26 08:42:26;;;;;;;;;;;;;;;19.44;100.00;98167.53;5072481;28;19929;-82
2022/06/26 08:44:56;;;;;;;;;;;;;;;18.33;100.00;98181.06;5090259;28;20391;-82
2022/06/26 08:47:25;;;;;;;;;;;;;;;17.98;100.00;98186.78;5055263;28;20345;-82
2022/06/26 08:49:53;;;;;;;;;;;;;;;18.53;100.00;98183.88;5071532;28;20475;-81
2022/06/26 08:52:21;;;;;;;;;;;;;;;18.12;100.00;98194.44;5055110;28;19925;-81
2022/06/26 08:54:49;;;;;;;;;;;;;;;18.85;100.00;98172.16;5089771;28;19971;-82
2022/06/26 08:57:17;;;;;;;;;;;;;;;19.22;100.00;98175.81;5071634;28;19946;-82
2022/06/26 08:59:45;;;;;;;;;;;;;;;18.71;100.00;98175.88;5072001;28;19924;-82
2022/06/26 09:02:12;;;;;;;;;;;;;;;17.78;100.00;98181.91;5071433;28;19944;-82
2022/06/26 09:04:39;;;;;;;;;;;;;;;18.45;100.00;98200.53;5054272;28;19925;-82
2022/06/26 09:07:07;;;;;;;;;;;;;;;18.92;100.00;98174.53;5089579;28;20387;-82
2022/06/26 09:09:37;;;;;;;;;;;;;;;20.15;100.00;98171.28;5089667;28;19928;-82
2022/06/26 09:12:05;;;;;;;;;;;;;;;20.24;100.00;98177.50;5054222;28;20349;-82
2022/06/26 09:14:33;;;;;;;;;;;;;;;19.58;100.00;98171.47;5071550;28;20286;-82
2022/06/26 09:17:00;;;;;;;;;;;;;;;19.29;100.00;98174.59;5071341;28;20318;-82
2022/06/26 09:19:33;;;;;;;;;;;;;;;18.30;100.00;98176.41;5089174;28;20009;-82
2022/06/26 09:22:10;;;;;;;;;;;;;;;18.50;100.00;98177.19;5071376;28;20343;-82
2022/06/26 09:24:39;;;;;;;;;;;;;;;19.26;100.00;98153.72;5089089;28;20406;-82
2022/06/26 09:27:06;;;;;;;;;;;;;;;19.80;100.00;98171.59;5088778;28;19931;-82
2022/06/26 09:29:34;;;;;;;;;;;;;;;19.66;100.00;98176.16;5071583;28;19970;-82
2022/06/26 09:32:12;;;;;;;;;;;;;;;19.66;100.00;98167.66;5071153;28;19931;-82
2022/06/26 09:34:47;;;;;;;;;;;;;;;20.28;100.00;98161.00;5070843;28;19959;-82
2022/06/26 09:37:15;;;;;;;;;;;;;;;19.33;100.00;98161.78;5050045;28;20358;-82
2022/06/26 09:39:59;;;;;;;;;;;;;;;19.60;100.00;98161.19;5058825;28;19924;-82
2022/06/26 09:42:32;;;;;;;;;;;;;;;18.48;100.00;98162.75;5041934;28;20338;-82
2022/06/26 09:45:01;;;;;;;;;;;;;;;19.70;100.00;98165.34;5057509;28;19970;-82
2022/06/26 09:47:29;;;;;;;;;;;;;;;18.52;100.00;98188.78;5062493;28;19925;-84
2022/06/26 09:49:59;;;;;;;;;;;;;;;18.91;100.00;98175.81;5020966;28;20014;-82
2022/06/26 09:52:30;;;;;;;;;;;;;;;18.91;100.00;98181.47;5020886;28;19975;-81
2022/06/26 09:54:58;;;;;;;;;;;;;;;18.25;100.00;98182.78;5004218;28;19975;-84
2022/06/26 09:57:27;;;;;;;;;;;;;;;19.07;100.00;98182.88;5019855;28;19937;-81
2022/06/26 09:59:56;;;;;;;;;;;;;;;18.54;100.00;98200.38;5020787;28;20525;-81
2022/06/26 10:08:09;;;;;;;;;;;;;;;19.09;100.00;98198.09;4992289;28;19997;-81
2022/06/26 10:10:37;;;;;;;;;;;;;;;19.63;100.00;98197.00;4993558;28;19930;-81
2022/06/26 10:13:06;;;;;;;;;;;;;;;18.95;100.00;98201.81;4993122;28;20350;-81
2022/06/26 10:15:52;;;;;;;;;;;;;;;18.88;100.00;98196.63;4976968;28;19932;-81
2022/06/26 10:18:36;;;;;;;;;;;;;;;18.90;100.00;98213.84;4993269;28;19965;-81
2022/06/26 10:21:09;;;;;;;;;;;;;;;18.81;100.00;98182.91;4993286;28;19926;-81
2022/06/26 10:23:38;;;;;;;;;;;;;;;18.71;100.00;98175.06;4976607;28;19926;-81
2022/06/26 10:26:11;;;;;;;;;;;;;;;19.34;100.00;98185.97;4992702;28;19953;-81
2022/06/26 10:28:53;;;;;;;;;;;;;;;20.35;100.00;98196.63;4993056;28;19965;-81
2022/06/26 10:31:21;;;;;;;;;;;;;;;20.27;100.00;98181.38;4992656;28;19932;-81
2022/06/26 10:33:48;;;;;;;;;;;;;;;20.59;100.00;98158.03;4960427;28;19932;-81
2022/06/26 10:36:24;;;;;;;;;;;;;;;20.07;100.00;98156.03;4976464;28;20008;-81
2022/06/26 10:39:02;;;;;;;;;;;;;;;19.47;100.00;98166.50;4976546;28;19926;-81
2022/06/26 10:44:29;;;;;;;;;;;;;;;20.04;100.00;98162.72;5016970;28;20323;-79
2022/06/26 10:46:58;;;;;;;;;;;;;;;20.06;100.00;98152.41;5036572;28;19928;-79
2022/06/26 10:49:26;;;;;;;;;;;;;;;19.63;100.00;98173.56;5053104;28;19925;-79
2022/06/26 10:51:55;;;;;;;;;;;;;;;19.65;100.00;98159.66;5053960;28;20007;-79
2022/06/26 10:54:24;;;;;;;;;;;;;;;19.09;100.00;98166.97;5036297;28;19929;-79
2022/06/26 10:57:01;;;;;;;;;;;;;;;18.97;100.00;98176.63;5036742;28;20017;-79
2022/06/26 10:59:29;;;;;;;;;;;;;;;18.29;100.00;98164.31;5036177;28;19925;-79
2022/06/26 11:01:56;;;;;;;;;;;;;;;18.34;100.00;98171.31;5054021;28;19924;-79
2022/06/26 11:04:24;;;;;;;;;;;;;;;18.89;100.00;98183.22;5036052;28;19924;-79
2022/06/26 11:06:52;;;;;;;;;;;;;;;19.21;100.00;98194.09;5034830;28;19924;-79
2022/06/26 11:09:19;;;;;;;;;;;;;;;19.76;100.00;98190.91;5035142;28;19932;-79
2022/06/26 11:12:13;;;;;;;;;;;;;;;19.55;100.00;98167.56;5036036;28;19975;-79
2022/06/26 11:14:41;;;;;;;;;;;;;;;19.56;100.00;98162.69;5035337;28;20016;-79
2022/06/26 11:17:11;;;;;;;;;;;;;;;20.56;100.00;98175.28;5035881;28;19951;-79
2022/06/26 11:22:28;;;;;;;;;;;;;;;19.80;100.00;98176.47;5035698;28;19925;-79
2022/06/26 11:24:56;;;;;;;;;;;;;;;19.56;100.00;98168.34;5053893;28;19925;-79
2022/06/26 11:27:25;;;;;;;;;;;;;;;19.73;100.00;98168.47;5072351;28;19925;-79
2022/06/26 11:29:53;;;;;;;;;;;;;;;20.12;100.00;98175.09;5038442;28;19930;-79
2022/06/26 11:32:22;;;;;;;;;;;;;;;19.65;100.00;98179.50;5055569;28;19924;-80
2022/06/26 11:34:49;;;;;;;;;;;;;;;19.79;100.00;98172.09;5055519;28;19978;-79
2022/06/26 11:37:30;;;;;;;;;;;;;;;19.54;100.00;98166.03;5073163;28;19924;-79
2022/06/26 11:39:57;;;;;;;;;;;;;;;19.68;100.00;98182.09;5055532;28;20303;-79
2022/06/26 11:42:25;;;;;;;;;;;;;;;20.26;100.00;98174.94;5055395;28;19968;-79
2022/06/26 11:44:53;;;;;;;;;;;;;;;19.55;100.00;98173.25;5038725;28;20424;-79
2022/06/26 11:47:22;;;;;;;;;;;;;;;20.24;100.00;98200.22;5038598;28;19966;-79
2022/06/26 11:49:49;;;;;;;;;;;;;;;19.73;100.00;98174.13;5055188;28;19946;-80
2022/06/26 11:52:17;;;;;;;;;;;;;;;20.16;100.00;98175.69;5073163;28;20369;-79
2022/06/26 11:54:44;;;;;;;;;;;;;;;19.92;100.00;98184.53;5055128;28;19994;-79
2022/06/26 11:57:12;;;;;;;;;;;;;;;20.16;100.00;98182.13;5073085;28;19964;-79
2022/06/26 11:59:40;;;;;;;;;;;;;;;21.23;100.00;98182.66;5054776;28;19943;-79
2022/06/26 12:02:20;;;;;;;;;;;;;;;20.54;100.00;98186.41;5055025;28;19929;-79
2022/06/26 12:04:58;;;;;;;;;;;;;;;19.48;100.00;98196.38;5072967;28;20294;-80
2022/06/26 12:07:25;;;;;;;;;;;;;;;19.43;100.00;98170.84;5072661;28;20333;-79
2022/06/26 12:09:53;;;;;;;;;;;;;;;19.80;100.00;98159.47;5055027;28;19939;-79
2022/06/26 12:12:26;;;;;;;;;;;;;;;20.96;100.00;98198.38;5072859;28;20389;-80
2022/06/26 12:14:53;;;;;;;;;;;;;;;19.94;100.00;98184.81;5054304;28;19949;-79
2022/06/26 12:17:22;;;;;;;;;;;;;;;20.87;100.00;98183.63;5054985;28;19931;-79
2022/06/26 12:19:51;;;;;;;;;;;;;;;20.52;100.00;98194.63;5072785;28;19978;-86
2022/06/26 12:22:28;;;;;;;;;;;;;;;20.21;100.00;98200.44;5054872;28;19928;-85
2022/06/26 12:24:56;;;;;;;;;;;;;;;20.94;100.00;98177.44;5055037;28;19924;-85
2022/06/26 12:27:44;;;;;;;;;;;;;;;21.23;100.00;98188.34;5048875;28;20313;-84
2022/06/26 12:30:15;;;;;;;;;;;;;;;20.14;100.00;98203.78;5036499;28;19939;-85
2022/06/26 12:32:53;;;;;;;;;;;;;;;19.97;100.00;98185.84;5054732;28;19924;-85
2022/06/26 12:35:20;;;;;;;;;;;;;;;20.43;100.00;98189.19;5037741;28;19929;-85
2022/06/26 12:37:48;;;;;;;;;;;;;;;20.95;100.00;98181.84;5038212;28;19929;-85
2022/06/26 12:40:15;;;;;;;;;;;;;;;20.26;100.00;98194.81;5054979;28;20379;-85
2022/06/26 12:42:43;;;;;;;;;;;;;;;20.73;100.00;98191.09;5037739;28;20401;-85
2022/06/26 12:45:10;;;;;;;;;;;;;;;21.17;100.00;98181.88;5054631;28;19924;-85
2022/06/26 12:47:38;;;;;;;;;;;;;;;20.98;100.00;98186.50;5054429;28;19953;-85
2022/06/26 12:50:06;;;;;;;;;;;;;;;21.05;100.00;98188.84;5021064;28;19924;-85
2022/06/26 12:52:37;;;;;;;;;;;;;;;21.06;100.00;98181.88;5072883;28;19924;-85
2022/06/26 12:55:06;;;;;;;;;;;;;;;21.05;100.00;98183.16;5054516;28;19929;-85
2022/06/26 12:57:33;;;;;;;;;;;;;;;21.28;100.00;98201.78;5037587;28;20299;-86
2022/06/26 13:00:01;;;;;;;;;;;;;;;20.89;100.00;98175.34;5037847;28;19924;-85
2022/06/26 13:02:28;;;;;;;;;;;;;;;21.39;100.00;98184.72;5038077;28;19928;-87
2022/06/26 13:04:56;;;;;;;;;;;;;;;21.32;100.00;98193.75;5021655;28;20426;-86
2022/06/26 13:07:24;;;;;;;;;;;;;;;20.02;100.00;98170.94;5038121;28;19970;-87
2022/06/26 13:09:55;;;;;;;;;;;;;;;20.75;100.00;98168.63;5037747;28;20323;-86